Omar, New York
Current Conditions -  °F | °C
As of 11:56 AM on Friday 31 Oct 2014 (Local Time) from KART Reporting Station
Overcast Overcast  
Wind Chill: 45°   Ceiling: 6000
Heat Index: 48°   Visibility: 10mi
Dew Point: 36°   Wind: 6mph
Humidity: 63%   Direction: 40°NE
Pressure: 30.01"   Gusts: NA
Location:  44.1911°N, 75.9494°W
Report Text: KART 311556Z AUTO 04005KT 10SM OVC060 09/02 A3001 RMK AO2 SLP166 T00890022
Loading
Personal Weather Stations






























Interactive Weather Map
Tropical Storm Tracking
New forecast layout! Learn more

10-Day Weather Forecast

Advertisements
Track Severe Weather on mobile